Time;durP1;ratioP1;P1;durP2;ratioP2;P2;SDS_P1;SDS_P2;PMS_P1;PMS_P2;Temp;Humidity;BMP_temperature;BMP_pressure;BME280_temperature;BME280_humidity;BME280_pressure;Samples;Min_cycle;Max_cycle;Signal;HPM_P1;HPM_P2
2022/12/12 13:19:07;;;;;;;18.63;9.73;;;;;;;-0.02;100.00;101112.84;5286125;27;20365;-74
2022/12/12 13:22:03;;;;;;;16.67;8.63;;;;;;;-0.05;100.00;101107.69;5268000;28;20025;-73
2022/12/12 13:24:53;;;;;;;;;;;;;;;-0.02;100.00;101108.50;5270165;28;20479;-73
2022/12/12 13:27:44;;;;;;;18.60;9.87;;;;;;;-0.04;100.00;101105.13;5270136;28;19920;-73
2022/12/12 13:30:23;;;;;;;17.63;9.97;;;;;;;0.08;100.00;101111.00;5270347;28;20025;-72
2022/12/12 13:33:01;;;;;;;20.20;10.53;;;;;;;0.16;100.00;101109.16;5271692;28;20392;-73
2022/12/12 13:35:41;;;;;;;20.10;10.23;;;;;;;0.07;100.00;101104.97;5265390;28;20036;-73
2022/12/12 13:38:31;;;;;;;14.80;10.10;;;;;;;0.11;100.00;101098.94;5269581;28;20450;-73
2022/12/12 13:41:06;;;;;;;20.33;10.20;;;;;;;0.11;100.00;101104.09;5268532;28;20147;-73
2022/12/12 13:43:37;;;;;;;14.97;9.47;;;;;;;0.08;100.00;101103.25;5271650;28;20028;-72
2022/12/12 13:46:25;;;;;;;12.77;8.33;;;;;;;0.18;100.00;101102.28;5271485;28;20032;-73
2022/12/12 13:49:05;;;;;;;15.07;9.60;;;;;;;0.21;100.00;101109.13;5271849;28;20131;-72
2022/12/12 13:51:42;;;;;;;17.07;10.73;;;;;;;0.20;100.00;101097.97;5271069;28;20055;-73
2022/12/12 13:54:13;;;;;;;14.57;9.13;;;;;;;0.23;100.00;101102.22;5270103;28;20056;-73
2022/12/12 13:56:54;;;;;;;16.60;8.70;;;;;;;0.27;100.00;101100.47;5275835;28;20063;-74
2022/12/12 13:59:25;;;;;;;17.33;10.10;;;;;;;0.28;100.00;101095.28;5273236;28;20062;-74
2022/12/12 14:02:00;;;;;;;14.90;8.30;;;;;;;0.30;100.00;101096.13;5269590;28;20021;-73
2022/12/12 14:04:33;;;;;;;14.17;7.93;;;;;;;0.30;100.00;101096.13;5277172;28;20044;-73
2022/12/12 14:07:04;;;;;;;13.70;8.00;;;;;;;0.31;100.00;101099.56;5268671;28;20025;-73
2022/12/12 14:09:39;;;;;;;15.07;7.87;;;;;;;0.28;100.00;101089.31;5312661;27;20498;-74
2022/12/12 14:12:24;;;;;;;12.23;7.57;;;;;;;0.29;100.00;101091.00;5271566;28;20075;-74
2022/12/12 14:15:01;;;;;;;12.63;7.57;;;;;;;0.29;100.00;101094.44;5272720;28;20489;-74
2022/12/12 14:17:37;;;;;;;14.83;7.30;;;;;;;0.25;100.00;101090.19;5272113;28;20080;-74
2022/12/12 14:20:50;;;;;;;11.93;7.13;;;;;;;0.35;100.00;101101.22;5270751;28;20041;-73
2022/12/12 14:23:26;;;;;;;11.07;7.13;;;;;;;0.37;100.00;101093.47;5260740;28;20032;-73
2022/12/12 14:25:59;;;;;;;14.07;7.17;;;;;;;0.17;100.00;101092.88;5261916;28;20037;-74
2022/12/12 14:28:32;;;;;;;10.40;7.10;;;;;;;0.34;100.00;101113.25;5267277;28;20036;-73
2022/12/12 14:31:16;;;;;;;12.87;7.33;;;;;;;0.38;100.00;101119.22;5257448;28;20111;-73
2022/12/12 14:33:51;;;;;;;14.87;7.10;;;;;;;0.36;100.00;101123.53;5257096;28;20021;-73
2022/12/12 14:37:10;;;;;;;13.33;7.23;;;;;;;0.37;100.00;101112.34;5242838;28;20219;-74
2022/12/12 14:39:51;;;;;;;13.50;7.17;;;;;;;0.37;100.00;101127.81;5245895;28;20044;-73
2022/12/12 14:42:28;;;;;;;14.07;7.50;;;;;;;0.35;100.00;101127.84;5260424;28;20025;-74
2022/12/12 14:44:59;;;;;;;12.23;6.77;;;;;;;0.36;100.00;101126.13;5263716;28;20077;-73
2022/12/12 14:47:30;;;;;;;13.33;7.10;;;;;;;0.35;100.00;101126.97;5257787;28;20499;-69
2022/12/12 14:50:09;;;;;;;15.20;8.30;;;;;;;0.29;100.00;101127.94;5258034;28;20033;-72
2022/12/12 14:52:41;;;;;;;16.43;7.10;;;;;;;0.09;100.00;101125.56;5261447;28;20032;-72
2022/12/12 14:55:15;;;;;;;13.37;7.07;;;;;;;0.12;100.00;101115.25;5257767;28;20364;-72
2022/12/12 14:57:47;;;;;;;12.48;7.03;;;;;;;0.18;100.00;101120.31;5256289;28;20037;-72
2022/12/12 15:00:19;;;;;;;17.27;7.77;;;;;;;0.11;100.00;101123.84;5257267;28;20447;-72
2022/12/12 15:02:51;;;;;;;17.07;8.37;;;;;;;0.09;100.00;101128.13;5248110;28;20075;-72
2022/12/12 15:05:22;;;;;;;11.67;7.50;;;;;;;-0.07;100.00;101112.84;5257418;28;20021;-71
2022/12/12 15:07:58;;;;;;;16.70;8.83;;;;;;;0.05;100.00;101123.91;5251093;28;20033;-74
2022/12/12 15:10:29;;;;;;;12.50;7.07;;;;;;;-0.04;100.00;101125.72;5249872;28;20033;-73
2022/12/12 15:13:01;;;;;;;18.63;8.50;;;;;;;-0.14;100.00;101127.53;5249550;28;20029;-73
2022/12/12 15:15:33;;;;;;;16.13;7.70;;;;;;;-0.18;100.00;101114.72;5249140;28;20025;-73
2022/12/12 15:18:05;;;;;;;14.80;7.93;;;;;;;-0.14;100.00;101135.25;5249409;28;20066;-74
2022/12/12 15:20:36;;;;;;;14.03;8.27;;;;;;;-0.27;100.00;101119.09;5250029;28;20037;-73
2022/12/12 15:23:17;;;;;;;15.63;8.23;;;;;;;-0.15;100.00;101137.84;5250180;28;20108;-72
2022/12/12 15:25:54;;;;;;;16.03;8.00;;;;;;;-0.22;100.00;101141.34;5248999;28;20052;-72
2022/12/12 15:28:26;;;;;;;14.67;8.00;;;;;;;-0.31;100.00;101138.00;5250143;28;20039;-72
2022/12/12 15:30:57;;;;;;;13.93;7.53;;;;;;;-0.38;100.00;101128.63;5250297;28;20021;-73
2022/12/12 15:33:36;;;;;;;13.90;6.80;;;;;;;-0.32;100.00;101140.59;5250078;28;20021;-72
2022/12/12 15:36:27;;;;;;;14.27;8.77;;;;;;;-0.33;100.00;101138.88;5247931;28;20040;-72
2022/12/12 15:39:16;;;;;;;14.57;7.33;;;;;;;-0.50;100.00;101133.03;5249006;28;20430;-73
2022/12/12 15:41:48;;;;;;;13.17;9.23;;;;;;;-0.58;100.00;101139.97;5248218;28;20039;-72
2022/12/12 15:44:20;;;;;;;16.23;8.53;;;;;;;-0.56;100.00;101148.50;5249411;28;20451;-73
2022/12/12 15:46:52;;;;;;;15.93;8.20;;;;;;;-0.59;100.00;101134.84;5250026;28;20032;-73
2022/12/12 15:49:44;;;;;;;27.13;9.93;;;;;;;-0.56;100.00;101145.94;5248463;28;20029;-74
2022/12/12 15:52:23;;;;;;;17.33;8.57;;;;;;;-0.74;100.00;101142.66;5249220;28;20032;-72
2022/12/12 15:54:57;;;;;;;13.80;7.60;;;;;;;-0.74;100.00;101132.38;5249515;28;20032;-72
2022/12/12 15:57:41;;;;;;;20.97;8.53;;;;;;;-0.64;100.00;101150.28;5250257;28;20479;-72
2022/12/12 16:00:29;;;;;;;22.17;9.05;;;;;;;-0.58;100.00;101163.13;5248920;28;20040;-72
2022/12/12 16:03:04;;;;;;;22.60;10.17;;;;;;;-0.77;100.00;101164.97;5247850;28;20095;-72
2022/12/12 16:05:38;;;;;;;16.20;8.57;;;;;;;-0.70;100.00;101160.63;5248446;28;20075;-72
2022/12/12 16:08:30;;;;;;;15.67;7.93;;;;;;;-0.64;100.00;101168.28;5249754;28;20773;-72
2022/12/12 16:11:05;;;;;;;16.07;8.07;;;;;;;-0.74;100.00;101160.66;5248253;28;20803;-72
2022/12/12 16:13:39;;;;;;;15.77;9.33;;;;;;;-0.78;100.00;101161.53;5248379;28;20059;-72
2022/12/12 16:16:40;;;;;;;17.58;8.30;;;;;;;-0.66;100.00;101175.16;5247248;28;20036;-72
2022/12/12 16:19:26;;;;;;;16.53;9.47;;;;;;;-0.69;100.00;101175.19;5248525;28;20048;-72
2022/12/12 16:22:06;;;;;;;19.50;8.03;;;;;;;-0.80;100.00;101170.97;5246997;28;20040;-77
2022/12/12 16:24:53;;;;;;;21.50;10.40;;;;;;;-1.05;100.00;101142.88;5247511;28;20602;-73
2022/12/12 16:27:24;;;;;;;20.57;11.57;;;;;;;-1.13;100.00;101158.34;5248869;28;20047;-73
2022/12/12 16:29:55;;;;;;;24.90;13.07;;;;;;;-1.08;100.00;101160.88;5249371;28;20040;-73
2022/12/12 16:32:27;;;;;;;27.80;17.40;;;;;;;-1.03;100.00;101150.56;5246932;28;20479;-72
2022/12/12 16:34:58;;;;;;;31.20;19.20;;;;;;;-1.09;100.00;101146.31;5248075;28;20652;-74
2022/12/12 16:37:29;;;;;;;34.87;21.23;;;;;;;-0.96;100.00;101153.97;5247980;28;20043;-73
2022/12/12 16:40:01;;;;;;;29.70;17.40;;;;;;;-1.13;100.00;101150.63;5246924;28;20053;-73
2022/12/12 16:42:34;;;;;;;33.93;18.47;;;;;;;-1.15;100.00;101144.63;5246541;28;20487;-73
2022/12/12 16:45:06;;;;;;;26.80;15.65;;;;;;;-1.18;100.00;101161.78;5247069;28;20048;-74
2022/12/12 16:47:37;;;;;;;25.40;15.73;;;;;;;-1.12;100.00;101136.06;5247349;28;20025;-74
2022/12/12 16:50:12;;;;;;;26.43;15.63;;;;;;;-1.05;100.00;101155.72;5243656;28;20120;-74
2022/12/12 16:52:44;;;;;;;26.52;13.77;;;;;;;-1.08;100.00;101144.63;5247060;28;20100;-73
2022/12/12 16:55:22;;;;;;;23.47;12.60;;;;;;;-1.10;100.00;101147.19;5245157;28;20533;-74
2022/12/12 16:57:53;;;;;;;20.43;13.30;;;;;;;-1.06;100.00;101150.56;5246067;28;20037;-74
2022/12/12 17:00:24;;;;;;;25.73;13.37;;;;;;;-1.15;100.00;101144.63;5245217;28;20082;-74
2022/12/12 17:02:56;;;;;;;21.37;13.63;;;;;;;-1.14;100.00;101154.06;5248882;28;20110;-73
2022/12/12 17:05:28;;;;;;;22.27;13.77;;;;;;;-1.13;100.00;101157.47;5251263;28;20029;-74
2022/12/12 17:08:00;;;;;;;19.73;12.20;;;;;;;-1.11;100.00;101151.47;5246708;28;20110;-72
2022/12/12 17:10:33;;;;;;;22.80;14.20;;;;;;;-1.19;100.00;101150.66;5246648;28;21216;-73
2022/12/12 17:13:06;;;;;;;34.03;14.30;;;;;;;-1.22;100.00;101159.25;5247254;28;20013;-73
2022/12/12 17:15:37;;;;;;;25.57;12.87;;;;;;;-1.23;100.00;101152.41;5254929;28;20052;-73
2022/12/12 17:18:09;;;;;;;21.07;12.40;;;;;;;-1.43;100.00;101152.47;5255569;28;20082;-73
2022/12/12 17:20:40;;;;;;;21.50;12.97;;;;;;;-1.25;100.00;101158.41;5242795;28;20087;-73
2022/12/12 17:23:16;;;;;;;31.90;15.20;;;;;;;-1.50;100.00;101161.09;5253004;28;20025;-73
2022/12/12 17:25:48;;;;;;;23.67;12.67;;;;;;;-1.31;100.00;101159.31;5254576;28;20021;-72
2022/12/12 17:28:19;;;;;;;25.13;12.73;;;;;;;-1.25;100.00;101151.56;5254888;28;20102;-73
2022/12/12 17:30:50;;;;;;;19.93;11.97;;;;;;;-1.15;100.00;101159.22;5254163;28;20025;-72
2022/12/12 17:33:22;;;;;;;23.60;13.03;;;;;;;-1.46;100.00;101114.84;5254858;28;20081;-72
2022/12/12 17:36:02;;;;;;;22.37;13.43;;;;;;;-1.18;100.00;101147.22;5254808;28;20033;-71
2022/12/12 17:38:33;;;;;;;26.23;14.90;;;;;;;-1.15;100.00;101154.91;5255500;28;20384;-72
2022/12/12 17:41:07;;;;;;;22.30;14.50;;;;;;;-1.18;100.00;101152.38;5247902;28;20025;-72
2022/12/12 17:43:41;;;;;;;26.65;14.18;;;;;;;-1.17;100.00;101155.81;5246845;28;20025;-73
2022/12/12 17:46:15;;;;;;;21.50;13.33;;;;;;;-1.17;100.00;101156.63;5246514;28;20124;-73
2022/12/12 17:48:47;;;;;;;21.40;15.23;;;;;;;-1.23;100.00;101142.13;5245438;28;20933;-73
2022/12/12 17:51:20;;;;;;;21.33;13.17;;;;;;;-1.21;100.00;101152.41;5246394;28;20029;-72
2022/12/12 17:53:53;;;;;;;23.13;12.77;;;;;;;-1.30;100.00;101145.59;5247754;28;20076;-72
2022/12/12 17:56:25;;;;;;;21.70;12.47;;;;;;;-1.23;100.00;101159.25;5246520;28;20058;-72
2022/12/12 17:58:57;;;;;;;23.70;13.83;;;;;;;-1.26;100.00;101155.00;5245577;28;20036;-73
2022/12/12 18:01:30;;;;;;;29.80;13.83;;;;;;;-1.27;100.00;101168.69;5246599;28;20029;-73
2022/12/12 18:04:03;;;;;;;22.47;13.70;;;;;;;-1.26;100.00;101155.00;5247268;28;20029;-72
2022/12/12 18:06:34;;;;;;;22.73;13.13;;;;;;;-1.30;100.00;101160.13;5251023;28;20473;-71
2022/12/12 18:09:06;;;;;;;22.97;14.07;;;;;;;-1.26;100.00;101165.28;5248950;28;20287;-70
2022/12/12 18:11:37;;;;;;;19.73;12.77;;;;;;;-1.32;100.00;101159.28;5250672;28;20032;-71
2022/12/12 18:14:17;;;;;;;24.60;14.57;;;;;;;-1.29;100.00;101167.84;5250568;28;20723;-72
2022/12/12 18:16:52;;;;;;;21.97;14.17;;;;;;;-1.28;100.00;101156.72;5249917;28;20132;-71
2022/12/12 18:19:24;;;;;;;;;;;;;;;-1.20;100.00;101156.66;5234459;28;21331;-71
2022/12/12 18:21:55;;;;;;;26.43;14.50;;;;;;;-1.29;100.00;101152.41;5246272;28;21489;-72
2022/12/12 18:24:28;;;;;;;18.60;13.13;;;;;;;-1.37;100.00;101149.91;5249666;28;20122;-71
2022/12/12 18:27:02;;;;;;;20.73;14.10;;;;;;;-1.38;100.00;101153.31;5250801;28;20025;-72
2022/12/12 18:29:33;;;;;;;18.90;13.13;;;;;;;-1.46;100.00;101140.53;5249462;28;20311;-72
2022/12/12 18:32:04;;;;;;;21.83;13.70;;;;;;;-1.40;100.00;101149.06;5248445;28;20060;-72
2022/12/12 18:34:36;;;;;;;23.83;12.83;;;;;;;-1.52;100.00;101139.69;5250531;28;20483;-72
2022/12/12 18:37:07;;;;;;;26.37;15.63;;;;;;;-1.42;100.00;101158.50;5250067;28;20028;-72
2022/12/12 18:39:38;;;;;;;24.73;14.10;;;;;;;-1.46;100.00;101155.06;5251365;28;20048;-73
2022/12/12 18:42:10;;;;;;;22.57;13.87;;;;;;;-1.52;100.00;101144.84;5247502;28;20148;-76
2022/12/12 18:44:42;;;;;;;24.00;15.43;;;;;;;-1.53;100.00;101143.97;5251808;28;20486;-73
2022/12/12 18:47:13;;;;;;;25.47;14.80;;;;;;;-1.54;100.00;101147.41;5248342;28;20495;-74
2022/12/12 18:49:44;;;;;;;24.87;14.90;;;;;;;-1.48;100.00;101157.66;5249308;28;20037;-73
2022/12/12 18:52:15;;;;;;;26.27;16.23;;;;;;;-1.58;100.00;101148.28;5248932;28;20047;-73
2022/12/12 18:54:47;;;;;;;29.73;16.37;;;;;;;-1.53;100.00;101150.81;5248645;28;20029;-74
2022/12/12 18:57:19;;;;;;;28.17;16.90;;;;;;;-1.61;100.00;101145.72;5249335;28;20041;-74
2022/12/12 18:59:50;;;;;;;26.13;16.13;;;;;;;-1.66;100.00;101135.47;5248686;28;20033;-73
2022/12/12 19:02:21;;;;;;;26.47;15.70;;;;;;;-1.84;100.00;101133.81;5250687;28;20041;-73
2022/12/12 19:04:52;;;;;;;27.07;16.77;;;;;;;-1.92;100.00;101145.84;5250518;28;20029;-72
2022/12/12 19:07:24;;;;;;;24.23;15.73;;;;;;;-1.78;100.00;101141.50;5248560;28;20037;-73
2022/12/12 19:09:56;;;;;;;25.60;14.33;;;;;;;-1.85;100.00;101143.22;5247698;28;20392;-73
2022/12/12 19:12:27;;;;;;;26.70;14.37;;;;;;;-1.78;100.00;101141.50;5251244;28;20110;-72
2022/12/12 19:14:58;;;;;;;23.43;13.90;;;;;;;-1.69;100.00;101150.88;5248060;28;20094;-74
2022/12/12 19:17:30;;;;;;;27.10;14.43;;;;;;;-1.62;100.00;101151.72;5249055;28;20049;-73
2022/12/12 19:20:01;;;;;;;24.93;14.07;;;;;;;-1.71;100.00;101145.75;5248341;28;20461;-73
2022/12/12 19:22:32;;;;;;;20.87;14.20;;;;;;;-1.76;100.00;101142.34;5248677;28;20035;-75
2022/12/12 19:25:04;;;;;;;21.77;14.07;;;;;;;-1.66;100.00;101157.72;5246856;28;20179;-74
2022/12/12 19:27:35;;;;;;;22.83;15.07;;;;;;;-1.74;100.00;101150.03;5248481;28;20029;-74
2022/12/12 19:30:08;;;;;;;24.83;15.50;;;;;;;-1.66;100.00;101162.88;5239143;28;20037;-74
2022/12/12 19:32:39;;;;;;;22.60;14.30;;;;;;;-1.69;100.00;101161.16;5246457;28;20035;-74
2022/12/12 19:35:10;;;;;;;23.23;14.00;;;;;;;-1.71;100.00;101166.28;5249023;28;20025;-75
2022/12/12 19:37:42;;;;;;;25.30;15.67;;;;;;;-1.80;100.00;101160.34;5247534;28;20110;-74
2022/12/12 19:40:14;;;;;;;23.43;14.23;;;;;;;-1.80;100.00;101161.22;5246724;28;20623;-75
2022/12/12 19:42:45;;;;;;;27.40;15.50;;;;;;;-1.82;100.00;101158.63;5248358;28;20048;-74
2022/12/12 19:45:16;;;;;;;26.60;15.47;;;;;;;-1.79;100.00;101165.47;5248433;28;20191;-74
2022/12/12 19:47:48;;;;;;;27.23;14.13;;;;;;;-1.95;100.00;101156.94;5249081;28;20149;-74
2022/12/12 19:50:20;;;;;;;23.13;13.63;;;;;;;-1.85;100.00;101171.47;5248021;28;20487;-73
2022/12/12 19:52:51;;;;;;;20.13;14.17;;;;;;;-1.88;100.00;101157.78;5249933;28;20105;-73
2022/12/12 19:55:22;;;;;;;21.80;13.83;;;;;;;-1.88;100.00;101162.91;5246552;28;20551;-74
2022/12/12 19:57:54;;;;;;;24.17;15.73;;;;;;;-1.90;100.00;101159.53;5248871;28;20138;-75
2022/12/12 20:00:25;;;;;;;23.37;14.70;;;;;;;-1.90;100.00;101165.50;5250235;28;20025;-73
2022/12/12 20:02:56;;;;;;;26.87;15.57;;;;;;;-1.94;100.00;101163.81;5249875;28;20064;-74
2022/12/12 20:05:28;;;;;;;22.60;14.40;;;;;;;-1.99;100.00;101161.25;5253879;28;20690;-75
2022/12/12 20:07:59;;;;;;;22.83;15.17;;;;;;;-2.03;100.00;101153.56;5261977;28;20029;-74
2022/12/12 20:10:33;;;;;;;23.30;16.10;;;;;;;-2.08;100.00;101146.72;5256005;28;20033;-75
2022/12/12 20:13:04;;;;;;;24.30;14.27;;;;;;;-2.05;100.00;101158.69;5242703;28;20468;-72
2022/12/12 20:15:37;;;;;;;22.70;15.57;;;;;;;-2.03;100.00;101169.81;5246492;28;20087;-72
2022/12/12 20:18:09;;;;;;;23.67;16.60;;;;;;;-2.08;100.00;101149.28;5247455;28;20052;-73
2022/12/12 20:20:41;;;;;;;31.97;16.60;;;;;;;-2.08;100.00;101151.84;5248409;28;20342;-73
2022/12/12 20:23:12;;;;;;;25.97;15.33;;;;;;;-2.14;100.00;101151.00;5248369;28;20627;-74
2022/12/12 20:25:43;;;;;;;24.13;15.47;;;;;;;-2.14;100.00;101153.56;5246451;28;20068;-72
2022/12/12 20:28:14;;;;;;;28.80;15.07;;;;;;;-2.08;100.00;101156.16;5246736;28;20037;-73
2022/12/12 20:30:46;;;;;;;23.97;15.73;;;;;;;-2.20;100.00;101157.84;5246866;28;20025;-73
2022/12/12 20:33:17;;;;;;;32.33;16.13;;;;;;;-2.16;100.00;101157.88;5246290;28;20657;-73
2022/12/12 20:35:48;;;;;;;25.60;16.13;;;;;;;-2.21;100.00;101156.16;5245309;28;20033;-74
2022/12/12 20:38:20;;;;;;;26.33;15.70;;;;;;;-2.19;100.00;101149.31;5246885;28;20033;-71
2022/12/12 20:40:51;;;;;;;27.13;16.50;;;;;;;-2.27;100.00;101132.22;5246124;28;20033;-74
2022/12/12 20:43:22;;;;;;;26.57;15.87;;;;;;;-2.17;100.00;101156.16;5246252;28;20669;-75
2022/12/12 20:45:54;;;;;;;25.47;14.50;;;;;;;-2.28;100.00;101164.72;5245760;28;20059;-76
2022/12/12 20:48:25;;;;;;;26.50;15.33;;;;;;;-2.15;100.00;101168.13;5247218;28;20075;-75
2022/12/12 20:50:57;;;;;;;32.83;15.97;;;;;;;-2.23;100.00;101157.88;5246985;28;20037;-80
2022/12/12 20:53:28;;;;;;;24.63;15.73;;;;;;;-2.22;100.00;101159.59;5251097;28;20013;-79
2022/12/12 20:56:02;;;;;;;22.80;14.83;;;;;;;-2.09;100.00;101180.09;5248234;28;20044;-81
2022/12/12 20:58:35;;;;;;;25.27;16.53;;;;;;;-2.23;100.00;101168.13;5256428;28;20033;-74
2022/12/12 21:01:11;;;;;;;28.13;16.70;;;;;;;-2.22;100.00;101164.72;5257119;28;20291;-78
2022/12/12 21:03:43;;;;;;;22.77;14.10;;;;;;;-2.17;100.00;101181.81;5257053;28;20275;-81
2022/12/12 21:06:17;;;;;;;24.90;15.40;;;;;;;-2.19;100.00;101174.97;5256514;28;20291;-85
2022/12/12 21:08:50;;;;;;;28.77;16.02;;;;;;;-2.32;100.00;101163.84;5263795;28;20378;-85
2022/12/12 21:11:24;;;;;;;26.50;16.00;;;;;;;-2.19;100.00;101174.97;5257077;28;20056;-86
2022/12/12 21:13:55;;;;;;;25.77;14.98;;;;;;;-2.28;100.00;101174.97;5257343;28;20017;-86
2022/12/12 21:16:31;;;;;;;24.00;15.73;;;;;;;-2.27;100.00;101181.81;5256573;28;20061;-87
2022/12/12 21:19:06;;;;;;;27.70;15.33;;;;;;;-2.32;100.00;101174.13;5241804;28;20033;-84
2022/12/12 21:21:38;;;;;;;;;;;;;;;-2.23;100.00;101180.09;5258184;28;20287;-83
2022/12/12 21:24:11;;;;;;;27.70;16.57;;;;;;;-2.50;100.00;101144.22;5255368;28;20013;-85
2022/12/12 21:26:44;;;;;;;23.87;15.90;;;;;;;-2.39;100.00;101169.84;5254994;28;20271;-76
2022/12/12 21:29:15;;;;;;;40.50;17.10;;;;;;;-2.40;100.00;101164.72;5255696;28;20762;-79
2022/12/12 21:31:47;;;;;;;24.43;15.30;;;;;;;-2.69;100.00;101169.00;5256078;28;20333;-79
2022/12/12 21:34:22;;;;;;;25.13;16.37;;;;;;;-2.71;100.00;101174.13;5254592;28;20056;-80
2022/12/12 21:36:54;;;;;;;22.73;14.70;;;;;;;-2.95;100.00;101172.41;5255004;28;20036;-85
2022/12/12 21:39:27;;;;;;;25.53;14.63;;;;;;;-3.01;100.00;101164.66;5259125;28;20319;-82
2022/12/12 21:41:58;;;;;;;26.43;16.30;;;;;;;-2.78;100.00;101181.81;5258386;28;20288;-80
2022/12/12 21:44:30;;;;;;;26.33;15.53;;;;;;;-2.78;100.00;101161.28;5262064;28;20299;-79
2022/12/12 21:47:01;;;;;;;24.27;14.67;;;;;;;-2.72;100.00;101164.72;5260345;28;20502;-82
2022/12/12 21:49:32;;;;;;;30.43;17.03;;;;;;;-2.90;100.00;101128.81;5260471;28;20179;-79
2022/12/12 21:52:08;;;;;;;26.40;14.80;;;;;;;-2.53;100.00;101180.09;5258642;28;20495;-83
2022/12/12 21:54:40;;;;;;;24.17;14.37;;;;;;;-2.92;100.00;101168.13;5250684;28;20041;-82
2022/12/12 21:57:11;;;;;;;22.97;14.50;;;;;;;-2.65;100.00;101182.69;5251625;28;20669;-79
2022/12/12 21:59:42;;;;;;;28.03;15.53;;;;;;;-2.96;100.00;101122.84;5253120;28;20025;-77
2022/12/12 22:02:14;;;;;;;24.13;15.37;;;;;;;-2.61;100.00;101179.25;5251497;28;20504;-88
2022/12/12 22:04:45;;;;;;;29.13;16.10;;;;;;;-2.56;100.00;101180.97;5252847;28;20029;-83
2022/12/12 22:07:18;;;;;;;25.07;14.53;;;;;;;-2.54;100.00;101178.41;5254297;28;20032;-75
2022/12/12 22:09:49;;;;;;;24.43;15.47;;;;;;;-2.58;100.00;101177.53;5253067;28;20406;-78
2022/12/12 22:12:20;;;;;;;22.60;14.73;;;;;;;-2.58;100.00;101167.28;5253906;28;20336;-81
2022/12/12 22:14:51;;;;;;;24.33;15.80;;;;;;;-2.66;100.00;101161.31;5254584;28;20032;-80
2022/12/12 22:17:23;;;;;;;23.00;15.87;;;;;;;-2.68;100.00;101156.19;5252860;28;20124;-79
2022/12/12 22:19:56;;;;;;;25.70;15.33;;;;;;;-2.69;100.00;101174.13;5251178;28;20035;-86
2022/12/12 22:22:27;;;;;;;22.93;15.53;;;;;;;-2.63;100.00;101168.13;5250403;28;20052;-73
2022/12/12 22:24:59;;;;;;;27.90;15.10;;;;;;;-2.59;100.00;101173.28;5248095;28;20339;-77
2022/12/12 22:27:32;;;;;;;26.97;16.10;;;;;;;-2.75;100.00;101154.47;5250900;28;20029;-78
2022/12/12 22:30:04;;;;;;;26.63;17.20;;;;;;;-2.71;100.00;101161.31;5252239;28;20021;-82
2022/12/12 22:32:35;;;;;;;25.60;15.33;;;;;;;-2.64;100.00;101176.69;5249838;28;20353;-74
